Time;durP1;ratioP1;P1;durP2;ratioP2;P2;SDS_P1;SDS_P2;PMS_P1;PMS_P2;Temp;Humidity;BMP_temperature;BMP_pressure;BME280_temperature;BME280_humidity;BME280_pressure;Samples;Min_cycle;Max_cycle;Signal;HPM_P1;HPM_P2
2022/08/16 00:02:09;;;;;;;5.50;1.90;;;;;;;27.94;43.50;100346.22;5055150;28;20029;-53
2022/08/16 00:04:37;;;;;;;8.43;3.05;;;;;;;27.98;43.17;100340.88;5055167;28;20029;-50
2022/08/16 00:07:06;;;;;;;7.10;2.13;;;;;;;27.94;43.46;100336.56;5054896;28;20555;-50
2022/08/16 00:09:35;;;;;;;7.45;2.17;;;;;;;28.02;43.24;100345.22;5054965;28;20028;-54
2022/08/16 00:12:04;;;;;;;7.40;2.08;;;;;;;27.99;43.58;100337.34;5054397;28;20032;-54
2022/08/16 00:14:33;;;;;;;5.45;2.00;;;;;;;27.94;43.34;100343.56;5055046;28;20021;-53
2022/08/16 00:17:02;;;;;;;6.07;1.92;;;;;;;27.97;43.31;100339.13;5054802;28;20021;-54
2022/08/16 00:19:33;;;;;;;6.72;2.00;;;;;;;27.93;43.19;100339.19;5054901;28;20464;-55
2022/08/16 00:22:02;;;;;;;7.95;2.22;;;;;;;27.83;43.58;100341.06;5054867;28;20464;-54
2022/08/16 00:24:31;;;;;;;9.40;2.65;;;;;;;27.92;43.08;100340.97;5054595;28;20041;-52
2022/08/16 00:26:59;;;;;;;8.25;2.28;;;;;;;27.93;43.54;100336.56;5053789;28;20361;-52
2022/08/16 00:29:27;;;;;;;4.28;1.77;;;;;;;27.93;43.20;100332.16;5054656;28;20025;-55
2022/08/16 00:31:57;;;;;;;7.60;2.47;;;;;;;27.83;43.50;100326.16;5054772;28;20024;-52
2022/08/16 00:34:25;;;;;;;9.07;2.45;;;;;;;27.89;43.35;100331.31;5054818;28;20444;-53
2022/08/16 00:36:54;;;;;;;6.45;2.75;;;;;;;27.87;43.30;100333.13;5054508;28;20025;-53
2022/08/16 00:39:22;;;;;;;9.68;2.28;;;;;;;27.80;43.39;100328.81;5054508;28;20032;-54
2022/08/16 00:41:50;;;;;;;6.75;2.15;;;;;;;27.83;43.63;100333.16;5054487;28;20033;-51
2022/08/16 00:44:21;;;;;;;8.73;2.08;;;;;;;27.93;43.24;100318.09;5054326;28;20033;-53
2022/08/16 00:46:56;;;;;;;11.68;3.25;;;;;;;28.12;42.61;100324.91;5036956;28;20392;-54
2022/08/16 00:49:24;;;;;;;8.98;2.17;;;;;;;28.13;42.85;100323.16;5054401;28;20029;-55
2022/08/16 00:51:53;;;;;;;7.70;2.55;;;;;;;27.92;43.23;100308.44;5054168;28;20045;-55
2022/08/16 00:54:23;;;;;;;9.68;3.38;;;;;;;28.02;42.88;100321.47;5054446;28;20311;-52
2022/08/16 00:56:53;;;;;;;9.07;2.53;;;;;;;28.03;43.06;100325.88;5036784;28;20029;-53
2022/08/16 00:59:23;;;;;;;6.70;2.22;;;;;;;27.99;43.25;100316.25;5036181;28;20032;-52
2022/08/16 01:01:52;;;;;;;8.45;2.95;;;;;;;27.94;43.29;100311.94;5036526;28;20025;-53
2022/08/16 01:04:24;;;;;;;7.68;2.72;;;;;;;27.86;43.42;100318.22;5053922;28;20373;-51
2022/08/16 01:06:53;;;;;;;7.38;2.60;;;;;;;27.77;43.88;100309.56;5036258;28;20029;-54
2022/08/16 01:09:22;;;;;;;6.40;2.40;;;;;;;27.86;43.42;100310.31;5053802;28;20032;-55
2022/08/16 01:11:51;;;;;;;7.25;2.05;;;;;;;27.78;43.52;100293.69;5036027;28;20036;-51
2022/08/16 01:14:23;;;;;;;7.93;2.25;;;;;;;27.81;43.41;100311.22;5053920;28;20027;-54
2022/08/16 01:16:52;;;;;;;7.15;2.17;;;;;;;27.78;43.49;100303.38;5035904;28;20029;-53
2022/08/16 01:19:40;;;;;;;7.15;2.40;;;;;;;27.74;43.89;100311.34;5035941;28;20104;-55
2022/08/16 01:22:32;;;;;;;6.13;2.58;;;;;;;27.70;43.73;100304.34;5030094;28;20033;-55
2022/08/16 01:25:04;;;;;;;8.60;2.90;;;;;;;27.64;43.67;100308.81;5031133;28;20041;-54
2022/08/16 01:27:37;;;;;;;9.18;2.80;;;;;;;27.66;43.70;100304.41;5053629;28;20021;-52
2022/08/16 01:30:26;;;;;;;8.75;2.40;;;;;;;27.80;43.55;100309.50;5036116;28;20185;-54
2022/08/16 01:33:00;;;;;;;6.90;2.35;;;;;;;27.65;43.58;100297.41;5035824;28;20392;-51
2022/08/16 01:35:34;;;;;;;8.32;2.20;;;;;;;27.65;43.71;100300.03;5035917;28;20028;-54
2022/08/16 01:38:24;;;;;;;11.23;2.75;;;;;;;27.64;43.88;100298.28;5035362;28;20104;-53
2022/08/16 01:40:55;;;;;;;10.60;2.95;;;;;;;27.74;43.56;100303.44;5047519;28;20041;-54
2022/08/16 01:43:24;;;;;;;7.60;2.35;;;;;;;27.82;43.51;100297.16;5036008;28;20052;-52
2022/08/16 01:45:55;;;;;;;7.72;2.30;;;;;;;27.66;43.44;100283.34;5053412;28;20039;-54
2022/08/16 01:48:28;;;;;;;7.88;2.53;;;;;;;27.82;43.35;100283.97;5053202;28;20028;-53
2022/08/16 01:50:57;;;;;;;9.23;2.58;;;;;;;27.91;43.21;100299.69;5035379;28;20040;-54
2022/08/16 01:53:25;;;;;;;8.20;2.38;;;;;;;27.84;43.34;100290.09;5035194;28;20049;-53
2022/08/16 01:55:54;;;;;;;8.77;2.65;;;;;;;27.80;43.49;100296.34;5035202;28;20040;-54
2022/08/16 01:58:24;;;;;;;8.35;2.75;;;;;;;27.75;43.93;100296.38;5052562;28;20033;-52
2022/08/16 02:00:52;;;;;;;11.18;2.70;;;;;;;27.63;43.65;100281.63;5035542;28;20028;-53
2022/08/16 02:03:20;;;;;;;8.32;2.42;;;;;;;27.74;43.50;100287.63;5052907;28;20503;-53
2022/08/16 02:05:49;;;;;;;5.97;2.45;;;;;;;27.66;43.91;100288.59;5052673;28;20436;-53
2022/08/16 02:08:18;;;;;;;10.52;2.50;;;;;;;27.62;44.08;100282.50;5052868;28;20087;-53
2022/08/16 02:10:46;;;;;;;7.55;2.80;;;;;;;27.59;44.16;100279.91;5035054;28;20025;-52
2022/08/16 02:13:14;;;;;;;6.38;1.98;;;;;;;27.65;43.80;100277.19;5052831;28;20148;-50
2022/08/16 02:15:43;;;;;;;7.70;2.50;;;;;;;27.67;43.95;100266.63;5052481;28;20514;-55
2022/08/16 02:18:11;;;;;;;5.90;2.05;;;;;;;27.61;44.19;100267.59;5052512;28;20037;-55
2022/08/16 02:20:40;;;;;;;8.38;3.10;;;;;;;27.60;44.08;100269.34;5035197;28;20812;-54
2022/08/16 02:23:09;;;;;;;12.43;3.20;;;;;;;27.58;44.16;100268.50;5034516;28;20033;-52
2022/08/16 02:25:37;;;;;;;11.45;2.95;;;;;;;27.56;44.40;100272.91;5052473;28;20036;-53
2022/08/16 02:28:06;;;;;;;9.55;2.92;;;;;;;27.53;44.34;100264.19;5034908;28;20021;-54
2022/08/16 02:30:35;;;;;;;6.30;2.58;;;;;;;27.59;44.31;100261.47;5052151;28;20384;-53
2022/08/16 02:33:05;;;;;;;10.25;2.72;;;;;;;27.66;44.22;100259.63;5052025;28;20110;-55
2022/08/16 02:35:33;;;;;;;11.27;3.05;;;;;;;27.63;44.13;100252.66;5052540;28;20029;-54
2022/08/16 02:38:02;;;;;;;8.60;2.92;;;;;;;27.63;44.24;100247.38;5051948;28;20029;-54
2022/08/16 02:40:32;;;;;;;9.52;3.08;;;;;;;27.62;44.08;100244.75;5034867;28;20025;-53
2022/08/16 02:43:01;;;;;;;7.85;2.83;;;;;;;27.57;44.40;100242.19;5052270;28;20032;-53
2022/08/16 02:45:30;;;;;;;8.32;3.47;;;;;;;27.48;44.41;100237.00;5052275;28;20032;-51
2022/08/16 02:47:59;;;;;;;4.65;2.20;;;;;;;27.55;44.21;100236.91;5052165;28;20020;-50
2022/08/16 02:50:27;;;;;;;5.45;2.50;;;;;;;27.46;44.27;100223.88;5051962;28;20058;-51
2022/08/16 02:52:56;;;;;;;7.78;2.47;;;;;;;27.44;44.52;100223.00;5052256;28;20052;-50
2022/08/16 02:55:24;;;;;;;7.43;2.50;;;;;;;27.63;43.84;100228.94;5034843;28;20096;-48
2022/08/16 02:57:53;;;;;;;7.20;2.45;;;;;;;27.72;43.69;100228.78;5034445;28;20464;-53
2022/08/16 03:00:22;;;;;;;5.93;2.40;;;;;;;27.71;43.26;100213.88;5052460;28;20032;-49
2022/08/16 03:02:50;;;;;;;6.03;2.47;;;;;;;27.68;43.35;100213.03;5052037;28;20033;-49
2022/08/16 03:05:19;;;;;;;6.93;2.10;;;;;;;27.55;43.28;100213.19;5034018;28;20025;-49
2022/08/16 03:07:48;;;;;;;7.95;2.88;;;;;;;27.45;43.41;100211.56;5052019;28;20025;-50
2022/08/16 03:10:16;;;;;;;5.60;2.08;;;;;;;27.29;43.81;100206.50;5052148;28;20028;-55
2022/08/16 03:12:44;;;;;;;8.40;2.55;;;;;;;27.45;43.24;100230.00;5052048;28;20425;-55
2022/08/16 03:15:15;;;;;;;4.93;2.20;;;;;;;27.44;43.47;100230.88;5051917;28;20297;-55
2022/08/16 03:17:44;;;;;;;4.70;2.05;;;;;;;27.45;43.19;100243.16;5034337;28;20079;-51
2022/08/16 03:20:15;;;;;;;4.60;2.17;;;;;;;27.39;43.29;100235.34;5051938;28;20033;-58
2022/08/16 03:22:43;;;;;;;6.47;1.95;;;;;;;27.38;43.19;100218.69;5051695;28;20056;-53
2022/08/16 03:25:15;;;;;;;7.30;2.45;;;;;;;27.32;43.35;100202.09;5051748;28;20391;-54
2022/08/16 03:27:43;;;;;;;5.85;2.70;;;;;;;27.45;43.00;100216.84;5052061;28;20013;-53
2022/08/16 03:30:17;;;;;;;7.47;2.85;;;;;;;27.47;42.96;100216.88;5051879;28;20048;-54
2022/08/16 03:32:47;;;;;;;5.70;2.35;;;;;;;27.48;42.88;100222.09;5051891;28;20017;-55
2022/08/16 03:35:17;;;;;;;3.92;1.65;;;;;;;27.30;43.44;100226.69;5051974;28;20036;-52
2022/08/16 03:37:47;;;;;;;6.68;2.03;;;;;;;27.33;43.58;100220.50;5051677;28;20015;-52
2022/08/16 03:40:16;;;;;;;5.45;2.10;;;;;;;27.34;43.31;100214.34;5034132;28;20029;-51
2022/08/16 03:42:45;;;;;;;7.65;2.17;;;;;;;27.33;43.26;100198.56;5051511;28;20406;-54
2022/08/16 03:45:14;;;;;;;4.57;1.92;;;;;;;27.33;43.29;100204.69;5051582;28;20025;-51
2022/08/16 03:47:42;;;;;;;4.60;2.10;;;;;;;27.23;43.24;100179.38;5051738;28;20025;-53
2022/08/16 03:50:11;;;;;;;3.88;1.65;;;;;;;27.37;43.20;100201.13;5051523;28;20029;-53
2022/08/16 03:52:40;;;;;;;4.03;1.83;;;;;;;27.32;43.17;100184.50;5051341;28;20063;-55
2022/08/16 03:55:09;;;;;;;4.82;2.03;;;;;;;27.35;43.25;100191.53;5051700;28;20104;-54
2022/08/16 03:57:37;;;;;;;7.18;1.77;;;;;;;27.38;43.13;100188.84;5051271;28;20361;-54
2022/08/16 04:00:16;;;;;;;4.85;2.10;;;;;;;27.29;43.24;100193.34;5034144;28;20024;-53
2022/08/16 04:02:46;;;;;;;4.22;1.65;;;;;;;27.34;43.08;100184.50;5053484;28;20029;-54
2022/08/16 04:05:15;;;;;;;3.40;1.70;;;;;;;27.37;43.10;100195.88;5037475;28;20029;-53
2022/08/16 04:07:44;;;;;;;5.93;2.47;;;;;;;27.33;43.05;100202.06;5055157;28;20031;-54
2022/08/16 04:10:14;;;;;;;5.22;2.33;;;;;;;27.34;43.07;100209.06;5054726;28;20420;-54
2022/08/16 04:12:44;;;;;;;4.57;1.80;;;;;;;27.34;42.99;100203.81;5055114;28;20021;-55
2022/08/16 04:15:15;;;;;;;3.17;1.48;;;;;;;27.37;42.94;100209.03;5054849;28;20503;-54
2022/08/16 04:17:43;;;;;;;6.05;1.77;;;;;;;27.39;42.92;100215.16;5054981;28;20021;-50
2022/08/16 04:20:13;;;;;;;4.57;2.00;;;;;;;27.42;42.83;100217.75;5054910;28;20127;-54
2022/08/16 04:22:43;;;;;;;5.80;1.95;;;;;;;27.35;43.06;100218.72;5054640;28;20025;-51
2022/08/16 04:25:13;;;;;;;5.28;1.73;;;;;;;27.38;42.65;100208.16;5054842;28;20029;-50
2022/08/16 04:27:41;;;;;;;4.05;1.80;;;;;;;27.46;42.66;100208.06;5054907;28;20476;-53
2022/08/16 04:30:13;;;;;;;5.22;1.90;;;;;;;27.39;42.69;100201.09;5054626;28;20060;-51
2022/08/16 04:32:42;;;;;;;4.43;1.70;;;;;;;27.43;42.79;100213.34;5036829;28;20488;-53
2022/08/16 04:35:15;;;;;;;3.38;1.65;;;;;;;27.43;42.89;100210.72;5054627;28;20028;-54
2022/08/16 04:37:45;;;;;;;4.40;1.90;;;;;;;27.39;42.58;100180.03;5054556;28;20476;-54
2022/08/16 04:40:15;;;;;;;8.35;2.20;;;;;;;27.37;42.85;100203.75;5036722;28;20025;-52
2022/08/16 04:42:44;;;;;;;5.00;1.65;;;;;;;27.28;43.13;100188.09;5054477;28;20025;-50
2022/08/16 04:45:15;;;;;;;5.72;1.60;;;;;;;27.26;43.13;100187.25;5054534;28;20159;-51
2022/08/16 04:47:43;;;;;;;6.60;2.00;;;;;;;27.25;42.99;100175.81;5053832;28;20025;-51
2022/08/16 04:50:14;;;;;;;3.65;1.60;;;;;;;27.24;43.14;100183.75;5054279;28;20025;-51
2022/08/16 04:52:46;;;;;;;6.57;2.28;;;;;;;27.21;42.91;100178.53;5053709;28;20462;-53
2022/08/16 04:55:18;;;;;;;6.30;1.77;;;;;;;27.27;42.81;100176.69;5054224;28;20039;-50
2022/08/16 04:57:48;;;;;;;5.70;2.30;;;;;;;27.23;42.91;100171.47;5053982;28;20020;-53
2022/08/16 05:00:21;;;;;;;3.30;1.48;;;;;;;27.29;42.68;100168.78;5054374;28;20029;-53
2022/08/16 05:02:52;;;;;;;5.22;2.03;;;;;;;27.26;42.61;100171.44;5054373;28;20078;-55
2022/08/16 05:05:21;;;;;;;4.25;1.70;;;;;;;27.36;42.55;100177.47;5054074;28;20029;-53
2022/08/16 05:07:49;;;;;;;6.38;1.38;;;;;;;27.30;42.52;100165.25;5053966;28;20055;-50
2022/08/16 05:10:18;;;;;;;6.05;2.28;;;;;;;27.30;42.42;100170.53;5053823;28;20435;-54
2022/08/16 05:12:47;;;;;;;5.68;1.85;;;;;;;27.18;42.73;100173.28;5053625;28;20009;-54
2022/08/16 05:15:15;;;;;;;2.63;1.35;;;;;;;27.26;42.52;100181.97;5054064;28;20419;-55
2022/08/16 05:17:44;;;;;;;4.43;1.45;;;;;;;27.11;42.87;100178.66;5053584;28;20035;-54
2022/08/16 05:20:13;;;;;;;3.72;1.33;;;;;;;27.15;42.67;100174.22;5053674;28;20078;-53
2022/08/16 05:22:42;;;;;;;3.70;1.45;;;;;;;27.18;42.66;100178.56;5053487;28;20036;-53
2022/08/16 05:25:11;;;;;;;4.70;1.55;;;;;;;27.15;42.57;100164.53;5053416;28;20029;-54
2022/08/16 05:27:40;;;;;;;4.72;1.48;;;;;;;27.13;42.50;100176.88;5053425;28;20494;-52
2022/08/16 05:30:12;;;;;;;5.10;1.60;;;;;;;27.18;42.64;100181.19;5053741;28;20048;-53
2022/08/16 05:32:40;;;;;;;3.45;1.55;;;;;;;27.07;42.51;100165.53;5035747;28;20033;-55
2022/08/16 05:35:11;;;;;;;5.55;2.17;;;;;;;27.13;42.59;100178.63;5053651;28;20029;-54
2022/08/16 05:37:40;;;;;;;3.85;1.40;;;;;;;27.15;42.65;100188.25;5035581;28;20039;-53
2022/08/16 05:40:10;;;;;;;6.05;1.58;;;;;;;27.11;42.52;100190.94;5053245;28;20037;-53
2022/08/16 05:42:38;;;;;;;3.58;0.60;;;;;;;27.00;42.87;100177.91;5035653;28;20036;-52
2022/08/16 05:45:07;;;;;;;3.47;1.48;;;;;;;26.95;42.96;100191.13;5053239;28;20029;-52
2022/08/16 05:47:36;;;;;;;3.90;1.20;;;;;;;27.09;42.75;100190.97;5053085;28;20092;-54
2022/08/16 05:50:06;;;;;;;3.72;1.10;;;;;;;27.11;42.54;100190.94;5052757;28;20040;-54
2022/08/16 05:52:34;;;;;;;1.75;1.08;;;;;;;27.13;42.74;100202.31;5052947;28;20045;-54
2022/08/16 05:55:04;;;;;;;3.50;1.15;;;;;;;27.11;42.46;100205.00;5052981;28;20480;-51
2022/08/16 05:57:32;;;;;;;4.95;1.10;;;;;;;27.20;42.23;100203.13;5053163;28;20029;-54
2022/08/16 06:00:01;;;;;;;2.97;1.23;;;;;;;27.19;42.30;100204.00;5052826;28;20373;-51
2022/08/16 06:02:31;;;;;;;6.53;1.23;;;;;;;27.26;42.22;100203.03;5052899;28;20051;-51
2022/08/16 06:05:00;;;;;;;3.80;1.23;;;;;;;27.27;42.29;100210.06;5052651;28;20020;-51
2022/08/16 06:07:29;;;;;;;4.65;1.20;;;;;;;27.21;42.28;100210.13;5052746;28;20091;-50
2022/08/16 06:09:58;;;;;;;4.70;1.88;;;;;;;27.29;42.00;100203.88;5052606;28;20025;-51
2022/08/16 06:12:28;;;;;;;5.53;1.48;;;;;;;27.33;42.02;100191.53;5035423;28;20060;-50
2022/08/16 06:14:58;;;;;;;11.70;1.65;;;;;;;27.32;42.41;100191.56;5052676;28;20025;-51
2022/08/16 06:17:27;;;;;;;3.35;1.40;;;;;;;27.35;42.20;100202.06;5052444;28;20033;-52
2022/08/16 06:19:56;;;;;;;3.65;1.40;;;;;;;27.38;42.10;100194.13;5052665;28;20082;-53
2022/08/16 06:22:24;;;;;;;4.07;1.30;;;;;;;27.42;42.14;100193.16;5052488;28;20033;-51
2022/08/16 06:24:53;;;;;;;5.80;1.58;;;;;;;27.52;41.91;100186.03;5051769;28;20033;-51
2022/08/16 06:27:22;;;;;;;4.47;1.40;;;;;;;27.62;41.84;100199.94;5052674;28;20025;-50
2022/08/16 06:29:50;;;;;;;6.40;1.50;;;;;;;27.56;42.41;100195.66;5034893;28;20383;-53
2022/08/16 06:32:19;;;;;;;2.90;1.05;;;;;;;27.59;42.20;100199.09;5052324;28;20163;-51
2022/08/16 06:34:47;;;;;;;1.67;0.82;;;;;;;27.66;42.10;100194.59;5052356;28;20024;-54
2022/08/16 06:37:16;;;;;;;6.93;1.25;;;;;;;27.59;42.48;100204.38;5052433;28;20367;-53
2022/08/16 06:39:44;;;;;;;7.65;1.35;;;;;;;27.54;42.47;100193.03;5052195;28;20025;-52
2022/08/16 06:42:13;;;;;;;4.70;1.40;;;;;;;27.69;42.57;100183.16;5051870;28;20107;-51
2022/08/16 06:44:41;;;;;;;5.88;1.42;;;;;;;27.68;42.50;100189.34;5052315;28;20108;-53
2022/08/16 06:47:09;;;;;;;4.55;1.33;;;;;;;27.62;42.16;100168.34;5052420;28;20029;-51
2022/08/16 06:49:38;;;;;;;2.85;1.15;;;;;;;27.80;42.22;100189.13;5034517;28;20029;-50
2022/08/16 06:52:07;;;;;;;2.88;1.27;;;;;;;27.76;42.32;100192.72;5034684;28;20377;-54
2022/08/16 06:54:36;;;;;;;5.57;1.85;;;;;;;27.85;42.44;100215.41;5052239;28;20025;-50
2022/08/16 06:57:09;;;;;;;6.07;1.42;;;;;;;27.89;42.33;100223.25;5052170;28;20128;-52
2022/08/16 06:59:38;;;;;;;4.80;1.55;;;;;;;27.96;41.96;100226.69;5051904;28;20613;-51
2022/08/16 07:02:07;;;;;;;8.30;1.60;;;;;;;27.98;42.44;100231.91;5035039;28;20021;-54
2022/08/16 07:04:35;;;;;;;3.47;1.17;;;;;;;27.99;42.39;100237.16;5034287;28;20029;-56
2022/08/16 07:07:05;;;;;;;4.80;1.58;;;;;;;27.99;42.35;100247.69;5035088;28;20111;-55
2022/08/16 07:09:34;;;;;;;8.20;1.98;;;;;;;27.90;42.72;100256.63;5051740;28;20025;-53
2022/08/16 07:12:02;;;;;;;8.85;1.90;;;;;;;27.77;42.83;100244.53;5052208;28;20024;-54
2022/08/16 07:14:31;;;;;;;5.63;1.48;;;;;;;27.76;42.73;100258.59;5052066;28;20090;-54
2022/08/16 07:17:00;;;;;;;7.97;2.15;;;;;;;27.67;43.20;100261.38;5051830;28;20459;-55
2022/08/16 07:19:33;;;;;;;6.38;1.83;;;;;;;27.75;42.76;100256.84;5051835;28;20076;-54
2022/08/16 07:22:02;;;;;;;5.97;1.38;;;;;;;27.78;42.77;100266.50;5034204;28;20676;-53
2022/08/16 07:24:31;;;;;;;8.07;2.17;;;;;;;27.81;42.86;100262.03;5052063;28;20036;-54
2022/08/16 07:27:00;;;;;;;7.70;1.85;;;;;;;27.69;42.99;100255.16;5051760;28;20067;-55
2022/08/16 07:29:29;;;;;;;5.72;1.58;;;;;;;27.65;43.18;100256.09;5052056;28;20370;-54
2022/08/16 07:31:58;;;;;;;9.65;1.95;;;;;;;27.64;43.42;100253.50;5051976;28;20021;-54
2022/08/16 07:34:26;;;;;;;8.50;1.95;;;;;;;27.71;43.06;100248.13;5051595;28;20037;-55
2022/08/16 07:36:55;;;;;;;7.95;1.92;;;;;;;27.66;43.33;100254.34;5037189;28;20113;-54
2022/08/16 07:39:23;;;;;;;5.85;1.83;;;;;;;27.68;43.19;100253.44;5055467;28;20531;-54
2022/08/16 07:41:52;;;;;;;7.03;1.90;;;;;;;27.86;42.82;100246.16;5055593;28;20063;-54
2022/08/16 07:44:21;;;;;;;12.18;2.08;;;;;;;27.94;42.71;100252.19;5055515;28;20033;-54
2022/08/16 07:46:49;;;;;;;6.80;1.75;;;;;;;27.96;42.46;100242.50;5055413;28;20591;-54
2022/08/16 07:49:18;;;;;;;6.53;1.77;;;;;;;27.82;42.76;100250.59;5055529;28;20028;-54
2022/08/16 07:51:47;;;;;;;9.45;2.10;;;;;;;27.86;42.86;100256.69;5055318;28;20017;-54
2022/08/16 07:54:14;;;;;;;8.70;2.17;;;;;;;27.81;42.89;100258.50;5055068;28;20041;-55
2022/08/16 07:56:41;;;;;;;6.20;1.65;;;;;;;27.90;42.69;100261.91;5056329;28;20036;-56
2022/08/16 07:59:09;;;;;;;7.40;1.63;;;;;;;27.89;42.67;100275.09;5064230;28;20028;-55
2022/08/16 08:01:37;;;;;;;8.10;1.98;;;;;;;27.95;42.87;100268.88;5064357;28;20468;-56
2022/08/16 08:04:06;;;;;;;10.00;1.70;;;;;;;27.93;42.32;100268.91;5046868;28;20036;-56
2022/08/16 08:06:34;;;;;;;7.32;1.50;;;;;;;27.91;42.59;100275.97;5063948;28;20033;-55
2022/08/16 08:09:03;;;;;;;4.60;1.35;;;;;;;27.96;42.39;100276.78;5062103;28;20497;-55
2022/08/16 08:11:30;;;;;;;7.22;1.67;;;;;;;27.95;42.62;100288.22;5045911;28;20051;-55
2022/08/16 08:13:59;;;;;;;6.97;1.65;;;;;;;27.93;42.51;100291.75;5064010;28;20060;-55
2022/08/16 08:16:27;;;;;;;6.70;1.73;;;;;;;28.09;42.55;100300.31;5063162;28;20025;-55
2022/08/16 08:18:54;;;;;;;9.52;1.60;;;;;;;28.01;42.85;100303.06;5043410;28;20463;-55
2022/08/16 08:21:23;;;;;;;6.60;1.20;;;;;;;28.03;42.87;100304.78;5070021;28;20085;-55
2022/08/16 08:23:51;;;;;;;6.43;1.50;;;;;;;27.93;42.95;100305.81;5062253;28;20173;-56
2022/08/16 08:26:20;;;;;;;4.90;1.45;;;;;;;28.01;42.76;100303.91;5063308;28;20029;-54
2022/08/16 08:28:48;;;;;;;10.63;1.60;;;;;;;28.04;42.90;100298.59;5065717;28;20539;-57
2022/08/16 08:31:15;;;;;;;6.28;1.85;;;;;;;28.03;42.91;100314.47;5061931;28;20024;-54
2022/08/16 08:33:42;;;;;;;3.92;1.13;;;;;;;28.05;43.03;100318.81;5063474;28;20063;-55
2022/08/16 08:36:14;;;;;;;8.18;1.60;;;;;;;28.03;43.03;100325.88;5044164;28;20514;-55
2022/08/16 08:38:42;;;;;;;4.43;1.45;;;;;;;28.04;42.84;100326.75;5045605;28;20032;-55
2022/08/16 08:41:10;;;;;;;9.23;1.92;;;;;;;27.97;43.09;100331.22;5061659;28;20024;-54
2022/08/16 08:43:37;;;;;;;4.28;1.00;;;;;;;27.90;43.04;100321.66;5060547;28;20117;-56
2022/08/16 08:46:05;;;;;;;9.93;1.80;;;;;;;28.03;42.91;100332.91;5059959;28;20419;-56
2022/08/16 08:48:33;;;;;;;7.68;1.65;;;;;;;27.97;43.09;100328.56;5060015;28;20028;-55
2022/08/16 08:51:00;;;;;;;6.22;1.38;;;;;;;28.05;42.90;100337.25;5063577;28;20111;-57
2022/08/16 08:53:28;;;;;;;4.72;1.20;;;;;;;28.00;42.91;100341.72;5065235;28;20048;-55
2022/08/16 08:55:57;;;;;;;7.00;1.23;;;;;;;27.99;43.13;100336.47;5064808;28;20041;-54
2022/08/16 08:58:24;;;;;;;4.75;1.20;;;;;;;27.90;43.18;100343.59;5059341;28;20013;-54
2022/08/16 09:00:52;;;;;;;4.82;1.67;;;;;;;27.81;43.22;100346.38;5064503;28;20035;-53
2022/08/16 09:03:20;;;;;;;4.93;1.52;;;;;;;27.83;43.34;100347.22;5062639;28;20553;-56
2022/08/16 09:05:50;;;;;;;5.93;1.20;;;;;;;27.80;43.17;100330.59;5049394;28;20406;-52
2022/08/16 09:08:18;;;;;;;7.10;1.98;;;;;;;27.88;43.16;100341.91;5067681;28;20078;-51
2022/08/16 09:10:46;;;;;;;6.13;1.20;;;;;;;27.72;43.54;100339.47;5060067;28;20021;-54
2022/08/16 09:13:14;;;;;;;8.00;1.52;;;;;;;27.69;43.45;100330.72;5061142;28;20024;-50
2022/08/16 09:15:42;;;;;;;4.38;1.08;;;;;;;27.74;43.67;100342.06;5066127;28;20101;-55
2022/08/16 09:18:11;;;;;;;5.20;1.90;;;;;;;27.73;43.54;100335.06;5067553;28;20078;-55
2022/08/16 09:20:39;;;;;;;10.55;1.67;;;;;;;27.78;43.66;100341.13;5056066;28;20118;-54
2022/08/16 09:23:06;;;;;;;7.45;1.98;;;;;;;27.79;43.57;100336.75;5044826;28;20082;-54
2022/08/16 09:25:34;;;;;;;7.57;1.95;;;;;;;27.84;43.50;100321.72;5055279;28;20020;-54
2022/08/16 09:28:03;;;;;;;5.95;1.92;;;;;;;27.81;44.06;100329.69;5053859;28;20082;-54
2022/08/16 09:30:33;;;;;;;5.88;1.50;;;;;;;27.73;43.93;100324.50;5066984;28;20029;-53
2022/08/16 09:33:01;;;;;;;6.28;1.52;;;;;;;27.78;44.27;100325.31;5068051;28;20025;-55
2022/08/16 09:35:30;;;;;;;7.35;1.75;;;;;;;27.83;44.21;100339.31;5068868;28;20438;-57
2022/08/16 09:37:57;;;;;;;7.38;1.85;;;;;;;27.87;44.33;100340.16;5067826;28;20031;-56
2022/08/16 09:40:24;;;;;;;7.25;2.15;;;;;;;27.93;44.27;100331.28;5068980;28;20070;-55
2022/08/16 09:42:54;;;;;;;7.05;2.10;;;;;;;27.84;44.26;100327.00;5049064;28;20036;-53
2022/08/16 09:45:21;;;;;;;6.05;1.90;;;;;;;27.80;44.64;100323.53;5069085;28;20028;-55
2022/08/16 09:47:53;;;;;;;8.00;2.10;;;;;;;27.87;44.51;100334.88;5050949;28;20028;-55
2022/08/16 09:50:21;;;;;;;6.53;1.83;;;;;;;27.92;44.37;100350.63;5067934;28;20029;-55
2022/08/16 09:52:49;;;;;;;6.72;1.90;;;;;;;27.84;44.46;100353.34;5066220;28;20052;-56
2022/08/16 09:55:16;;;;;;;7.18;2.05;;;;;;;27.88;44.30;100360.34;5067306;28;20071;-54
2022/08/16 09:57:44;;;;;;;10.27;1.83;;;;;;;27.89;44.35;100370.00;5066693;28;20004;-52
2022/08/16 10:00:12;;;;;;;9.18;2.15;;;;;;;27.92;44.22;100367.31;5045045;28;20111;-56
2022/08/16 10:02:40;;;;;;;5.68;1.70;;;;;;;27.82;44.38;100361.31;5060188;28;20463;-53
2022/08/16 10:05:08;;;;;;;6.47;1.67;;;;;;;27.71;44.60;100356.16;5058516;28;20427;-54
2022/08/16 10:07:35;;;;;;;6.00;1.50;;;;;;;27.81;43.91;100364.81;5063567;28;20051;-56
2022/08/16 10:10:03;;;;;;;7.35;1.90;;;;;;;27.85;44.13;100360.38;5061271;28;20028;-54
2022/08/16 10:13:13;;;;;;;7.53;1.52;;;;;;;27.84;43.83;100356.00;5062861;28;20479;-53
2022/08/16 10:15:20;;;;;;;8.68;2.53;;;;;;;27.68;44.23;100353.56;5051695;28;20039;-55
2022/08/16 10:17:52;;;;;;;6.30;1.75;;;;;;;27.67;44.44;100350.97;5039980;28;20051;-54
2022/08/16 10:20:23;;;;;;;6.53;1.90;;;;;;;27.67;44.38;100369.41;5060616;28;20027;-55
2022/08/16 10:22:51;;;;;;;7.18;2.00;;;;;;;27.72;44.15;100370.19;5041381;28;20127;-55
2022/08/16 10:25:19;;;;;;;7.53;2.30;;;;;;;27.77;44.00;100367.53;5061281;28;20498;-53
2022/08/16 10:27:48;;;;;;;8.63;2.17;;;;;;;27.73;44.01;100377.22;5057817;28;20086;-56
2022/08/16 10:30:16;;;;;;;12.13;2.22;;;;;;;27.71;44.22;100393.06;5062285;28;20020;-56
2022/08/16 10:32:45;;;;;;;6.72;2.13;;;;;;;27.77;43.86;100389.47;5043010;28;20052;-54
2022/08/16 10:35:12;;;;;;;8.68;2.03;;;;;;;27.71;44.21;100395.69;5057828;28;20492;-55
2022/08/16 10:37:41;;;;;;;8.63;2.42;;;;;;;27.56;44.51;100388.81;5059278;28;20029;-53
2022/08/16 10:40:10;;;;;;;8.55;2.30;;;;;;;27.60;44.36;100381.78;5063705;28;20463;-56
2022/08/16 10:42:39;;;;;;;10.95;2.83;;;;;;;27.53;44.50;100375.72;5059357;28;20452;-54
2022/08/16 10:45:07;;;;;;;7.80;1.80;;;;;;;27.53;44.39;100373.06;5062803;28;20032;-53
2022/08/16 10:47:34;;;;;;;9.75;2.63;;;;;;;27.51;44.36;100373.97;5062853;28;20016;-54
2022/08/16 10:50:02;;;;;;;10.85;3.08;;;;;;;27.49;44.33;100375.72;5061300;28;20067;-54
2022/08/16 10:52:31;;;;;;;9.65;2.47;;;;;;;27.27;44.65;100354.88;5059640;28;20049;-53
2022/08/16 10:54:59;;;;;;;11.35;3.00;;;;;;;27.31;45.11;100364.47;5058818;28;20028;-57
2022/08/16 10:57:27;;;;;;;9.25;2.65;;;;;;;27.39;44.73;100373.19;5060727;28;20391;-54
2022/08/16 10:59:55;;;;;;;10.40;2.92;;;;;;;27.47;44.14;100367.00;5043348;28;20078;-55
2022/08/16 11:02:24;;;;;;;10.80;2.38;;;;;;;27.56;43.79;100367.75;5059106;28;20054;-54
2022/08/16 11:04:53;;;;;;;7.70;2.53;;;;;;;27.45;43.96;100361.72;5061768;28;20494;-55
2022/08/16 11:07:21;;;;;;;9.23;2.38;;;;;;;27.43;43.66;100367.00;5041706;28;20041;-54
2022/08/16 11:09:49;;;;;;;7.35;2.00;;;;;;;27.36;43.68;100360.03;5062181;28;20036;-55
2022/08/16 11:12:17;;;;;;;11.45;2.20;;;;;;;27.33;43.81;100367.13;5062644;28;20029;-54
2022/08/16 11:14:44;;;;;;;7.43;1.63;;;;;;;27.30;43.45;100361.00;5065550;28;20089;-51
2022/08/16 11:17:12;;;;;;;5.32;1.35;;;;;;;27.40;43.21;100358.25;5063211;28;20163;-54
2022/08/16 11:19:40;;;;;;;11.52;1.95;;;;;;;27.41;42.99;100352.97;5046583;28;20043;-52
2022/08/16 11:22:09;;;;;;;12.35;2.13;;;;;;;27.49;42.91;100358.19;5069982;28;20485;-54
2022/08/16 11:24:39;;;;;;;8.07;1.60;;;;;;;27.47;43.23;100349.44;5070593;28;20117;-56
2022/08/16 11:27:08;;;;;;;4.97;1.45;;;;;;;27.54;43.29;100363.41;5034203;28;20028;-55
2022/08/16 11:29:35;;;;;;;7.78;1.88;;;;;;;27.48;43.46;100356.44;5071123;28;20025;-56
2022/08/16 11:32:04;;;;;;;4.30;1.70;;;;;;;27.50;43.94;100353.78;5064684;28;20032;-56
2022/08/16 11:34:32;;;;;;;5.40;1.75;;;;;;;27.54;43.81;100342.31;5062005;28;20028;-56